Map

Track Data

SID SEASON NUMBER BASIN SUBBASIN NAME ISO_TIME NATURE LAT LON WMO_WIND WMO_PRES WMO_AGENCY TRACK_TYPE DIST2LAND LANDFALL IFLAG USA_AGENCY USA_ATCF_ID USA_LAT USA_LON USA_RECORD USA_STATUS USA_WIND USA_PRES USA_SSHS USA_R34_NE USA_R34_SE USA_R34_SW USA_R34_NW USA_R50_NE USA_R50_SE USA_R50_SW USA_R50_NW USA_R64_NE USA_R64_SE USA_R64_SW USA_R64_NW USA_POCI USA_ROCI USA_RMW USA_EYE TOKYO_LAT TOKYO_LON TOKYO_GRADE TOKYO_WIND TOKYO_PRES TOKYO_R50_DIR TOKYO_R50_LONG TOKYO_R50_SHORT TOKYO_R30_DIR TOKYO_R30_LONG TOKYO_R30_SHORT TOKYO_LAND CMA_LAT CMA_LON CMA_CAT CMA_WIND CMA_PRES HKO_LAT HKO_LON HKO_CAT HKO_WIND HKO_PRES NEWDELHI_LAT NEWDELHI_LON NEWDELHI_GRADE NEWDELHI_WIND NEWDELHI_PRES NEWDELHI_CI NEWDELHI_DP NEWDELHI_POCI REUNION_LAT REUNION_LON REUNION_TYPE REUNION_WIND REUNION_PRES REUNION_TNUM REUNION_CI REUNION_RMW REUNION_R34_NE REUNION_R34_SE REUNION_R34_SW REUNION_R34_NW REUNION_R50_NE REUNION_R50_SE REUNION_R50_SW REUNION_R50_NW REUNION_R64_NE REUNION_R64_SE REUNION_R64_SW REUNION_R64_NW BOM_LAT BOM_LON BOM_TYPE BOM_WIND BOM_PRES BOM_TNUM BOM_CI BOM_RMW BOM_R34_NE BOM_R34_SE BOM_R34_SW BOM_R34_NW BOM_R50_NE BOM_R50_SE BOM_R50_SW BOM_R50_NW BOM_R64_NE BOM_R64_SE BOM_R64_SW BOM_R64_NW BOM_ROCI BOM_POCI BOM_EYE BOM_POS_METHOD BOM_PRES_METHOD NADI_LAT NADI_LON NADI_CAT NADI_WIND NADI_PRES WELLINGTON_LAT WELLINGTON_LON WELLINGTON_WIND WELLINGTON_PRES DS824_LAT DS824_LON DS824_STAGE DS824_WIND DS824_PRES TD9636_LAT TD9636_LON TD9636_STAGE TD9636_WIND TD9636_PRES TD9635_LAT TD9635_LON TD9635_WIND TD9635_PRES TD9635_ROCI NEUMANN_LAT NEUMANN_LON NEUMANN_CLASS NEUMANN_WIND NEUMANN_PRES MLC_LAT MLC_LON MLC_CLASS MLC_WIND MLC_PRES USA_GUST BOM_GUST BOM_GUST_PER REUNION_GUST REUNION_GUST_PER USA_SEAHGT USA_SEARAD_NE USA_SEARAD_SE USA_SEARAD_SW USA_SEARAD_NW STORM_SPEED STORM_DIR
1868032S17441 1868 6 SI MM NOT_NAMED 1868-01-31 18:00:00 NR -17.4000 80.5000 main 2408 2362 __________O___ -1 -17.4000 80.5000 7 9 240
1868032S17441 1868 6 SI MM NOT_NAMED 1868-01-31 21:00:00 NR -17.6272 80.0820 main 2362 2317 __________P___ -1 -17.6272 80.0820 7 9 240
1868032S17441 1868 6 SI MM NOT_NAMED 1868-02-01 00:00:00 NR -17.8532 79.6608 main 2315 2269 __________P___ -1 -17.8532 79.6608 7 9 241
1868032S17441 1868 6 SI MM NOT_NAMED 1868-02-01 03:00:00 NR -18.0776 79.2342 main 2259 2213 __________P___ -1 -18.0776 79.2342 7 9 241
1868032S17441 1868 6 SI MM NOT_NAMED 1868-02-01 06:00:00 NR -18.3000 78.8000 main 2213 2168 __________O___ -1 -18.3000 78.8000 7 9 242
1868032S17441 1868 6 SI MM NOT_NAMED 1868-02-01 09:00:00 NR -18.5207 78.3568 main 2168 2113 __________P___ -1 -18.5207 78.3568 7 10 242
1868032S17441 1868 6 SI MM NOT_NAMED 1868-02-01 12:00:00 NR -18.7422 77.9069 main 2113 2066 __________P___ -1 -18.7422 77.9069 7 10 242
1868032S17441 1868 6 SI MM NOT_NAMED 1868-02-01 15:00:00 NR -18.9676 77.4536 main 2066 2011 __________P___ -1 -18.9676 77.4536 7 10 242
1868032S17441 1868 6 SI MM NOT_NAMED 1868-02-01 18:00:00 NR -19.2000 77.0000 main 2011 1967 __________O___ -1 -19.2000 77.0000 7 9 241
1868032S17441 1868 6 SI MM NOT_NAMED 1868-02-01 21:00:00 NR -19.4256 76.5813 main 1967 1923 __________P___ -1 -19.4256 76.5813 7 9 240
1868032S17441 1868 6 SI MM NOT_NAMED 1868-02-02 00:00:00 NR -19.6610 76.1582 main 1922 1868 __________P___ -1 -19.6610 76.1582 7 10 239
1868032S17441 1868 6 SI MM NOT_NAMED 1868-02-02 03:00:00 NR -19.9160 75.7060 main 1868 1814 __________P___ -1 -19.9160 75.7060 7 11 239
1868032S17441 1868 6 SI MM NOT_NAMED 1868-02-02 06:00:00 NR -20.2000 75.2000 main 1814 1750 __________O___ -1 -20.2000 75.2000 7 12 240
1868032S17441 1868 6 SI MM NOT_NAMED 1868-02-02 09:00:00 NR -20.5217 74.5997 main 1750 1686 __________P___ -1 -20.5217 74.5997 7 14 240
1868032S17441 1868 6 SI MM NOT_NAMED 1868-02-02 12:00:00 NR -20.8706 73.9453 main 1676 1613 __________P___ -1 -20.8706 73.9453 7 14 240
1868032S17441 1868 6 SI MM NOT_NAMED 1868-02-02 15:00:00 NR -21.2341 73.2682 main 1613 1542 __________P___ -1 -21.2341 73.2682 7 15 240
1868032S17441 1868 6 SI MM NOT_NAMED 1868-02-02 18:00:00 NR -21.6000 72.6000 main 1542 1483 __________O___ -1 -21.6000 72.6000 7 14 239
1868032S17441 1868 6 SI MM NOT_NAMED 1868-02-02 21:00:00 NR -21.9449 71.9885 main 1483 1425 __________P___ -1 -21.9449 71.9885 7 13 238
1868032S17441 1868 6 SI MM NOT_NAMED 1868-02-03 00:00:00 NR -22.2911 71.3908 main 1425 1368 __________P___ -1 -22.2911 71.3908 7 13 238
1868032S17441 1868 6 SI MM NOT_NAMED 1868-02-03 03:00:00 NR -22.6418 70.7977 main 1368 1315 __________P___ -1 -22.6418 70.7977 7 13 237
1868032S17441 1868 6 SI MM NOT_NAMED 1868-02-03 06:00:00 NR -23.0000 70.2000 main 1315 1262 __________O___ -1 -23.0000 70.2000 7 14 237
1868032S17441 1868 6 SI MM NOT_NAMED 1868-02-03 09:00:00 NR -23.3717 69.5657 main 1265 1214 __________P___ -1 -23.3717 69.5657 7 14 237
1868032S17441 1868 6 SI MM NOT_NAMED 1868-02-03 12:00:00 NR -23.7499 68.9272 main 1205 1160 __________P___ -1 -23.7499 68.9272 7 14 237
1868032S17441 1868 6 SI MM NOT_NAMED 1868-02-03 15:00:00 NR -24.1280 68.3000 main 1160 1119 __________P___ -1 -24.1280 68.3000 7 14 236
1868032S17441 1868 6 SI MM NOT_NAMED 1868-02-03 18:00:00 NR -24.5000 67.7000 main 1119 1081 __________O___ -1 -24.5000 67.7000 7 13 235
1868032S17441 1868 6 SI MM NOT_NAMED 1868-02-03 21:00:00 NR -24.8895 67.1019 main 1081 1051 __________P___ -1 -24.8895 67.1019 7 13 234
1868032S17441 1868 6 SI MM NOT_NAMED 1868-02-04 00:00:00 NR -25.2674 66.5382 main 1048 1024 __________P___ -1 -25.2674 66.5382 7 12 233
1868032S17441 1868 6 SI MM NOT_NAMED 1868-02-04 03:00:00 NR -25.6116 66.0303 main 1022 1007 __________P___ -1 -25.6116 66.0303 7 11 233
1868032S17441 1868 6 SI MM NOT_NAMED 1868-02-04 06:00:00 NR -25.9000 65.6000 main 1007 996 __________O___ -1 -25.9000 65.6000 7 8 234
1868032S17441 1868 6 SI MM NOT_NAMED 1868-02-04 09:00:00 NR -26.0981 65.2811 main 996 979 __________P___ -1 -26.0981 65.2811 7 6 236
1868032S17441 1868 6 SI MM NOT_NAMED 1868-02-04 12:00:00 NR -26.2433 65.0375 main 979 978 __________P___ -1 -26.2433 65.0375 7 5 237
1868032S17441 1868 6 SI MM NOT_NAMED 1868-02-04 15:00:00 NR -26.3670 64.8252 main 978 971 __________P___ -1 -26.3670 64.8252 7 5 237
1868032S17441 1868 6 SI MM NOT_NAMED 1868-02-04 18:00:00 NR -26.5000 64.6000 main 971 963 __________O___ -1 -26.5000 64.6000 7 6 237
1868032S17441 1868 6 SI MM NOT_NAMED 1868-02-04 21:00:00 NR -26.6775 64.2964 main 964 952 __________P___ -1 -26.6775 64.2964 7 7 237
1868032S17441 1868 6 SI MM NOT_NAMED 1868-02-05 00:00:00 NR -26.8700 63.9722 main 960 946 __________P___ -1 -26.8700 63.9722 7 7 236
1868032S17441 1868 6 SI MM NOT_NAMED 1868-02-05 03:00:00 NR -27.0775 63.6369 main 950 944 __________P___ -1 -27.0775 63.6369 7 7 234
1868032S17441 1868 6 SI MM NOT_NAMED 1868-02-05 06:00:00 NR -27.3000 63.3000 main 949 942 __________O___ -1 -27.3000 63.3000 7 7 232
1868032S17441 1868 6 SI MM NOT_NAMED 1868-02-05 09:00:00 NR -27.5353 62.9788 main 949 947 __________P___ -1 -27.5353 62.9788 7 7 230
1868032S17441 1868 6 SI MM NOT_NAMED 1868-02-05 12:00:00 NR -27.7846 62.6571 main 960 954 __________P___ -1 -27.7846 62.6571 7 8 229
1868032S17441 1868 6 SI MM NOT_NAMED 1868-02-05 15:00:00 NR -28.0416 62.3318 main 958 958 __________P___ -1 -28.0416 62.3318 7 8 228
1868032S17441 1868 6 SI MM NOT_NAMED 1868-02-05 18:00:00 NR -28.3000 62.0000 main 973 969 __________O___ -1 -28.3000 62.0000 7 7 230
1868032S17441 1868 6 SI MM NOT_NAMED 1868-02-05 21:00:00 NR -28.5208 61.6838 main 980 976 __________P___ -1 -28.5208 61.6838 7 7 232
1868032S17441 1868 6 SI MM NOT_NAMED 1868-02-06 00:00:00 NR -28.7463 61.3571 main 989 989 __________P___ -1 -28.7463 61.3571 7 8 231
1868032S17441 1868 6 SI MM NOT_NAMED 1868-02-06 03:00:00 NR -28.9987 61.0020 main 1006 1001 __________P___ -1 -28.9987 61.0020 7 9 230
1868032S17441 1868 6 SI MM NOT_NAMED 1868-02-06 06:00:00 NR -29.3000 60.6000 main 1015 1015 __________O___ -1 -29.3000 60.6000 7 10 228
1868032S17441 1868 6 SI MM NOT_NAMED 1868-02-06 09:00:00 NR -29.6833 60.1183 main 1030 1030 __________P___ -1 -29.6833 60.1183 7 12 227
1868032S17441 1868 6 SI MM NOT_NAMED 1868-02-06 12:00:00 NR -30.1132 59.5890 main 1050 1050 __________P___ -1 -30.1132 59.5890 7 13 227
1868032S17441 1868 6 SI MM NOT_NAMED 1868-02-06 15:00:00 NR -30.5614 59.0400 main 1082 1079 __________P___ -1 -30.5614 59.0400 7 13 227
1868032S17441 1868 6 SI MM NOT_NAMED 1868-02-06 18:00:00 NR -31.0000 58.5000 main 1110 1107 __________O___ -1 -31.0000 58.5000 7 12 227
1868032S17441 1868 6 SI MM NOT_NAMED 1868-02-06 21:00:00 NR -31.4078 57.9923 main 1142 1142 __________P___ -1 -31.4078 57.9923 7 12 227
1868032S17441 1868 6 SI MM NOT_NAMED 1868-02-07 00:00:00 NR -31.7878 57.5135 main 1176 1175 __________P___ -1 -31.7878 57.5135 7 11 227
1868032S17441 1868 6 SI MM NOT_NAMED 1868-02-07 03:00:00 NR -32.1490 57.0529 main 1204 1204 __________P___ -1 -32.1490 57.0529 7 11 227
1868032S17441 1868 6 SI MM NOT_NAMED 1868-02-07 06:00:00 NR -32.5000 56.6000 main 1243 __________O___ -1 -32.5000 56.6000 7 10 227

About IBTrACS Database

This database is a web-friendly format of International Best Track Archive for Climate Stewardship (IBTrACS), a global best track data archive curated by NOAA dating back to 1842.

Updated: 2021-10-21